createdAt,value
2019-03-31T00:00:15.771Z,71.65
2019-03-31T00:02:48.683Z,71.30
2019-03-31T00:05:20.398Z,71.15
2019-03-31T00:07:51.706Z,71.37
2019-03-31T00:10:23.391Z,67.27
2019-03-31T00:12:54.705Z,72.32
2019-03-31T00:15:25.946Z,74.85
2019-03-31T00:17:57.165Z,76.40
2019-03-31T00:20:28.474Z,73.67
2019-03-31T00:23:00.244Z,77.37
2019-03-31T00:25:31.462Z,80.05
2019-03-31T00:28:04.343Z,84.85
2019-03-31T00:30:35.701Z,82.95
2019-03-31T00:33:07.020Z,82.85
2019-03-31T00:35:38.338Z,81.65
2019-03-31T00:38:09.644Z,81.70
2019-03-31T00:40:40.939Z,81.50
2019-03-31T00:43:12.343Z,84.42
2019-03-31T00:45:43.674Z,93.30
2019-03-31T00:48:15.026Z,83.17
2019-03-31T00:50:46.365Z,83.60
2019-03-31T00:53:17.685Z,82.35
2019-03-31T00:55:48.999Z,81.47
2019-03-31T00:58:20.315Z,78.65
2019-03-31T01:00:53.263Z,77.60
2019-03-31T01:03:26.208Z,79.47
2019-03-31T01:05:57.549Z,76.02
2019-03-31T01:08:29.049Z,78.90
2019-03-31T01:11:01.386Z,81.45
2019-03-31T01:13:34.495Z,79.15
2019-03-31T01:16:05.813Z,77.80
2019-03-31T01:18:37.401Z,82.88
2019-03-31T01:21:08.785Z,78.78
2019-03-31T01:23:40.026Z,75.97
2019-03-31T01:26:11.926Z,77.60
2019-03-31T01:28:43.233Z,73.20
2019-03-31T01:31:16.366Z,72.45
2019-03-31T01:33:47.859Z,69.27
2019-03-31T01:36:19.352Z,72.92
2019-03-31T01:38:50.665Z,70.42
2019-03-31T01:41:22.007Z,72.35
2019-03-31T01:43:56.326Z,70.47
2019-03-31T01:46:30.089Z,75.57
2019-03-31T01:49:01.501Z,74.27
2019-03-31T01:51:33.086Z,71.72
2019-03-31T01:54:07.175Z,75.85
2019-03-31T01:56:40.893Z,77.47
2019-03-31T01:59:12.036Z,81.32
2019-03-31T02:01:43.351Z,82.92
2019-03-31T02:04:14.676Z,81.75
2019-03-31T02:06:47.054Z,83.10
2019-03-31T02:09:18.394Z,78.70
2019-03-31T02:11:51.381Z,78.30
2019-03-31T02:14:26.092Z,77.62
2019-03-31T02:16:57.340Z,74.25
2019-03-31T02:19:28.811Z,74.95
2019-03-31T02:22:00.185Z,76.77
2019-03-31T02:24:32.502Z,76.40
2019-03-31T02:27:03.799Z,77.47
2019-03-31T02:29:37.147Z,80.62
2019-03-31T02:32:22.476Z,78.42
2019-03-31T02:34:41.497Z,77.95
2019-03-31T02:37:13.135Z,76.97
2019-03-31T02:39:44.492Z,80.53
2019-03-31T02:42:15.823Z,84.80
2019-03-31T02:44:47.134Z,85.22
2019-03-31T02:47:18.471Z,78.15
2019-03-31T02:49:49.840Z,79.60
2019-03-31T02:52:21.099Z,87.97
2019-03-31T02:54:52.399Z,84.22
2019-03-31T02:57:23.680Z,85.55
2019-03-31T02:59:55.041Z,84.80
2019-03-31T03:02:40.570Z,94.55
2019-03-31T03:05:16.979Z,93.22
2019-03-31T03:07:32.819Z,98.07
2019-03-31T03:10:04.613Z,86.72
2019-03-31T03:12:35.911Z,88.50
2019-03-31T03:15:07.333Z,87.35
2019-03-31T03:17:38.723Z,87.17
2019-03-31T03:20:09.978Z,85.32
2019-03-31T03:22:41.294Z,82.60
2019-03-31T03:25:12.584Z,81.00
2019-03-31T03:27:43.901Z,78.05
2019-03-31T03:30:15.232Z,79.80
2019-03-31T03:33:12.210Z,79.50
2019-03-31T03:35:19.463Z,78.22
2019-03-31T03:37:50.671Z,77.12
2019-03-31T03:40:21.927Z,76.72
2019-03-31T03:42:53.224Z,75.75
2019-03-31T03:45:24.562Z,74.50
2019-03-31T03:47:55.859Z,74.42
2019-03-31T03:50:27.166Z,74.15
2019-03-31T03:52:58.492Z,73.02
2019-03-31T03:55:31.012Z,75.03
2019-03-31T03:58:02.231Z,74.27
2019-03-31T04:00:33.537Z,70.65
2019-03-31T04:03:04.785Z,67.92
2019-03-31T04:05:36.102Z,68.05
2019-03-31T04:08:07.565Z,70.32
2019-03-31T04:10:45.206Z,71.57
2019-03-31T04:13:16.586Z,71.72
2019-03-31T04:15:49.059Z,72.00
2019-03-31T04:18:20.504Z,69.58
2019-03-31T04:20:51.839Z,70.00
2019-03-31T04:23:23.272Z,70.95
2019-03-31T04:25:54.814Z,70.37
2019-03-31T04:28:26.170Z,67.72
2019-03-31T04:30:57.523Z,65.80
2019-03-31T04:33:48.324Z,64.30
2019-03-31T04:36:02.914Z,68.35
2019-03-31T04:38:34.228Z,67.12
2019-03-31T04:41:06.969Z,64.72
2019-03-31T04:43:38.283Z,59.33
2019-03-31T04:46:09.645Z,61.20
2019-03-31T04:48:40.999Z,71.80
2019-03-31T04:51:12.304Z,62.90
2019-03-31T04:53:43.601Z,60.38
2019-03-31T04:56:14.896Z,60.33
2019-03-31T04:58:46.263Z,64.92
2019-03-31T05:01:17.574Z,62.10
2019-03-31T05:04:03.467Z,63.42
2019-03-31T05:06:23.883Z,83.22
2019-03-31T05:09:00.019Z,69.90
2019-03-31T05:11:31.417Z,72.90
2019-03-31T05:14:02.674Z,65.72
2019-03-31T05:16:33.925Z,66.80
2019-03-31T05:19:05.140Z,59.80
2019-03-31T05:21:36.450Z,63.40
2019-03-31T05:24:07.798Z,66.28
2019-03-31T05:26:40.046Z,63.00
2019-03-31T05:29:11.532Z,63.65
2019-03-31T05:31:42.783Z,61.70
2019-03-31T05:34:19.212Z,62.45
2019-03-31T05:36:47.301Z,65.08
2019-03-31T05:39:18.582Z,61.45
2019-03-31T05:41:49.820Z,63.78
2019-03-31T05:44:21.216Z,63.05
2019-03-31T05:46:53.804Z,60.65
2019-03-31T05:49:25.099Z,61.85
2019-03-31T05:51:56.521Z,61.83
2019-03-31T05:54:27.867Z,62.33
2019-03-31T05:56:59.175Z,62.83
2019-03-31T05:59:30.516Z,65.50
2019-03-31T06:02:02.872Z,62.78
2019-03-31T06:04:34.237Z,80.00
2019-03-31T06:07:05.563Z,66.00
2019-03-31T06:09:36.866Z,63.15
2019-03-31T06:12:08.266Z,74.27
2019-03-31T06:14:40.978Z,62.58
2019-03-31T06:17:12.309Z,65.87
2019-03-31T06:19:43.742Z,64.60
2019-03-31T06:22:15.126Z,63.92
2019-03-31T06:24:46.614Z,37.33
2019-03-31T06:27:17.932Z,37.38
2019-03-31T06:29:49.331Z,37.35
2019-03-31T06:32:20.936Z,34.50
2019-03-31T06:34:52.246Z,37.55
2019-03-31T06:37:23.566Z,35.92
2019-03-31T06:39:54.875Z,33.90
2019-03-31T06:42:26.566Z,34.98
2019-03-31T06:44:57.959Z,33.83
2019-03-31T06:47:29.256Z,34.45
2019-03-31T06:50:00.534Z,33.15
2019-03-31T06:52:32.840Z,34.23
2019-03-31T06:55:08.610Z,32.95
2019-03-31T06:57:40.082Z,35.17
2019-03-31T07:00:11.537Z,34.20
2019-03-31T07:02:42.895Z,34.18
2019-03-31T07:05:14.283Z,34.98
2019-03-31T07:07:45.681Z,36.42
2019-03-31T07:10:17.112Z,33.90
2019-03-31T07:12:48.477Z,34.40
2019-03-31T07:15:19.895Z,32.13
2019-03-31T07:17:51.213Z,31.57
2019-03-31T07:20:22.695Z,34.18
2019-03-31T07:22:54.037Z,32.95
2019-03-31T07:25:25.337Z,32.80
2019-03-31T07:27:56.648Z,32.78
2019-03-31T07:30:28.009Z,32.53
2019-03-31T07:32:59.365Z,32.60
2019-03-31T07:35:30.724Z,32.17
2019-03-31T07:38:02.085Z,30.45
2019-03-31T07:40:33.511Z,31.05
2019-03-31T07:43:07.057Z,31.02
2019-03-31T07:45:38.470Z,29.85
2019-03-31T07:48:12.513Z,28.57
2019-03-31T07:50:44.178Z,28.87
2019-03-31T07:53:18.740Z,28.85
2019-03-31T07:55:50.164Z,29.23
2019-03-31T07:58:21.596Z,30.23
2019-03-31T08:00:52.945Z,29.12
2019-03-31T08:03:24.531Z,30.92
2019-03-31T08:05:57.933Z,29.65
2019-03-31T08:08:29.306Z,29.27
2019-03-31T08:11:02.337Z,30.35
2019-03-31T08:13:33.665Z,29.27
2019-03-31T08:16:06.141Z,29.37
2019-03-31T08:18:38.564Z,31.17
2019-03-31T08:21:10.934Z,28.98
2019-03-31T08:23:42.408Z,29.65
2019-03-31T08:26:13.881Z,30.50
2019-03-31T08:28:45.187Z,29.82
2019-03-31T08:31:18.080Z,30.82
2019-03-31T08:33:49.507Z,29.87
2019-03-31T08:36:20.865Z,32.17
2019-03-31T08:38:52.315Z,30.00
2019-03-31T08:41:23.728Z,29.48
2019-03-31T08:43:55.087Z,29.27
2019-03-31T08:46:26.475Z,28.67
2019-03-31T08:48:57.815Z,29.12
2019-03-31T08:51:29.039Z,30.00
2019-03-31T08:54:01.466Z,28.20
2019-03-31T08:56:33.279Z,28.23
2019-03-31T08:59:04.578Z,26.82
2019-03-31T09:01:35.972Z,28.77
2019-03-31T09:04:08.224Z,29.18
2019-03-31T09:06:39.801Z,29.37
2019-03-31T09:09:16.285Z,27.50
2019-03-31T09:11:48.866Z,28.10
2019-03-31T09:14:21.976Z,26.42
2019-03-31T09:16:53.286Z,26.10
2019-03-31T09:20:09.515Z,27.80
2019-03-31T09:22:43.229Z,26.33
2019-03-31T09:25:19.382Z,26.07
2019-03-31T09:27:51.108Z,28.07
2019-03-31T09:30:22.591Z,28.32
2019-03-31T09:32:53.941Z,29.98
2019-03-31T09:35:33.318Z,28.05
2019-03-31T09:38:06.716Z,27.40
2019-03-31T09:40:44.967Z,27.65
2019-03-31T09:43:16.909Z,26.55
2019-03-31T09:45:49.864Z,27.05
2019-03-31T09:48:28.202Z,25.75
2019-03-31T09:50:59.514Z,26.00
2019-03-31T09:53:32.102Z,27.17
2019-03-31T09:56:09.317Z,24.27
2019-03-31T09:58:40.764Z,25.27
2019-03-31T10:01:12.215Z,26.23
2019-03-31T10:03:45.648Z,25.23
2019-03-31T10:06:30.947Z,25.15
2019-03-31T10:09:09.147Z,25.50
2019-03-31T10:11:43.810Z,24.57
2019-03-31T10:14:16.340Z,25.50
2019-03-31T10:16:49.015Z,24.65
2019-03-31T10:19:20.517Z,22.87
2019-03-31T10:21:51.920Z,23.32
2019-03-31T10:24:23.423Z,25.43
2019-03-31T10:26:55.115Z,22.32
2019-03-31T10:29:26.718Z,22.42
2019-03-31T10:31:58.374Z,21.07
2019-03-31T10:34:29.758Z,21.42
2019-03-31T10:37:09.336Z,22.90
2019-03-31T10:39:42.779Z,21.65
2019-03-31T10:42:20.872Z,22.25
2019-03-31T10:44:55.686Z,19.35
2019-03-31T10:47:37.131Z,18.80
2019-03-31T10:50:22.084Z,18.60
2019-03-31T10:53:03.819Z,19.27
2019-03-31T10:55:46.443Z,20.40
2019-03-31T10:58:18.392Z,26.15
2019-03-31T11:00:50.019Z,34.75
2019-03-31T11:03:21.939Z,36.88
2019-03-31T11:05:53.732Z,21.10
2019-03-31T11:08:29.700Z,22.37
2019-03-31T11:11:01.198Z,23.83
2019-03-31T11:13:33.576Z,23.42
2019-03-31T11:16:04.879Z,23.10
2019-03-31T11:18:37.591Z,24.35
2019-03-31T11:21:15.266Z,25.55
2019-03-31T11:23:46.785Z,24.05
2019-03-31T11:26:18.223Z,23.15
2019-03-31T11:28:50.528Z,22.65
2019-03-31T11:31:23.911Z,29.50
2019-03-31T11:33:55.362Z,26.23
2019-03-31T11:36:28.469Z,26.17
2019-03-31T11:38:59.842Z,27.93
2019-03-31T11:41:31.238Z,28.07
2019-03-31T11:44:06.389Z,32.60
2019-03-31T11:46:37.742Z,34.05
2019-03-31T11:49:10.137Z,30.52
2019-03-31T11:51:41.669Z,33.85
2019-03-31T11:54:13.329Z,32.33
2019-03-31T11:56:44.846Z,30.85
2019-03-31T11:59:16.288Z,27.35
2019-03-31T12:01:47.703Z,28.83
2019-03-31T12:04:19.119Z,29.30
2019-03-31T12:06:50.450Z,28.02
2019-03-31T12:09:23.571Z,27.73
2019-03-31T12:11:55.175Z,26.42
2019-03-31T12:14:26.510Z,24.47
2019-03-31T12:16:57.855Z,24.67
2019-03-31T12:19:30.934Z,26.20
2019-03-31T12:22:02.298Z,23.60
2019-03-31T12:24:33.958Z,20.70
2019-03-31T12:27:05.236Z,21.82
2019-03-31T12:29:36.551Z,19.62
2019-03-31T12:32:07.922Z,20.02
2019-03-31T12:34:40.464Z,19.00
2019-03-31T12:37:11.814Z,18.62
2019-03-31T12:39:46.965Z,16.87
2019-03-31T12:42:41.106Z,17.80
2019-03-31T12:45:43.220Z,17.62
2019-03-31T12:48:06.788Z,16.52
2019-03-31T12:50:47.626Z,15.03
2019-03-31T12:53:30.474Z,16.75
2019-03-31T12:56:09.758Z,17.55
2019-03-31T12:58:45.569Z,19.92
2019-03-31T13:01:17.254Z,20.15
2019-03-31T13:04:01.403Z,20.02
2019-03-31T13:06:38.630Z,19.90
2019-03-31T13:09:10.604Z,20.02
2019-03-31T13:11:43.670Z,21.40
2019-03-31T13:14:17.103Z,18.55
2019-03-31T13:16:48.616Z,16.40
2019-03-31T13:19:21.033Z,15.15
2019-03-31T13:21:52.725Z,15.10
2019-03-31T13:24:24.160Z,15.75
2019-03-31T13:26:58.546Z,16.25
2019-03-31T13:29:33.901Z,16.82
2019-03-31T13:32:05.323Z,16.50
2019-03-31T13:34:36.844Z,17.45
2019-03-31T13:37:08.210Z,18.48
2019-03-31T13:39:39.575Z,16.85
2019-03-31T13:42:11.177Z,16.75
2019-03-31T13:47:18.277Z,16.25
2019-03-31T13:49:57.569Z,17.37
2019-03-31T13:52:30.535Z,19.15
2019-03-31T13:55:13.717Z,18.52
2019-03-31T13:57:57.642Z,19.23
2019-03-31T14:00:38.747Z,16.90
2019-03-31T14:03:14.554Z,19.02
2019-03-31T14:05:50.361Z,20.48
2019-03-31T14:08:31.981Z,17.15
2019-03-31T14:11:07.171Z,16.60
2019-03-31T14:13:43.999Z,17.90
2019-03-31T14:16:20.061Z,16.70
2019-03-31T14:18:52.802Z,16.05
2019-03-31T14:21:28.108Z,16.82
2019-03-31T14:23:59.971Z,16.27
2019-03-31T14:26:31.322Z,15.88
2019-03-31T14:29:07.053Z,15.35
2019-03-31T14:31:43.445Z,13.58
2019-03-31T14:34:18.927Z,14.50
2019-03-31T14:37:02.927Z,15.32
2019-03-31T14:39:47.427Z,15.70
2019-03-31T14:42:20.757Z,15.70
2019-03-31T14:44:56.352Z,15.90
2019-03-31T14:47:29.370Z,16.85
2019-03-31T14:50:08.680Z,14.85
2019-03-31T14:52:40.514Z,15.70
2019-03-31T14:55:12.863Z,15.63
2019-03-31T14:57:44.403Z,14.85
2019-03-31T15:00:15.769Z,15.20
2019-03-31T15:02:47.420Z,14.50
2019-03-31T15:05:18.978Z,13.88
2019-03-31T15:07:50.301Z,14.85
2019-03-31T15:10:21.784Z,14.95
2019-03-31T15:15:30.746Z,14.45
2019-03-31T15:18:05.923Z,16.32
2019-03-31T15:20:37.438Z,14.38
2019-03-31T15:23:08.806Z,14.20
2019-03-31T15:25:43.027Z,14.35
2019-03-31T15:28:15.337Z,13.70
2019-03-31T15:30:47.071Z,12.90
2019-03-31T15:33:22.991Z,13.78
2019-03-31T15:35:54.433Z,13.00
2019-03-31T15:38:25.902Z,13.62
2019-03-31T15:40:57.334Z,13.95
2019-03-31T15:43:32.568Z,14.25
2019-03-31T15:46:04.024Z,13.83
2019-03-31T15:48:38.920Z,13.72
2019-03-31T15:51:13.020Z,14.35
2019-03-31T15:53:44.422Z,13.30
2019-03-31T15:56:15.769Z,14.20
2019-03-31T15:58:47.676Z,13.68
2019-03-31T16:01:19.313Z,13.70
2019-03-31T16:03:50.883Z,15.20
2019-03-31T16:06:23.784Z,15.13
2019-03-31T16:08:56.733Z,16.30
2019-03-31T16:11:28.095Z,16.27
2019-03-31T16:13:59.341Z,16.87
2019-03-31T16:16:31.034Z,18.15
2019-03-31T16:19:03.486Z,17.00
2019-03-31T16:21:37.855Z,49.38
2019-03-31T16:24:09.240Z,18.30
2019-03-31T16:26:42.152Z,18.23
2019-03-31T16:29:15.534Z,18.23
2019-03-31T16:31:46.879Z,18.05
2019-03-31T16:34:18.303Z,18.82
2019-03-31T16:36:49.956Z,18.65
2019-03-31T16:39:21.264Z,18.82
2019-03-31T16:41:53.563Z,18.35
2019-03-31T16:44:25.922Z,22.32
2019-03-31T16:46:57.279Z,24.23
2019-03-31T16:49:28.649Z,23.87
2019-03-31T16:52:00.037Z,24.12
2019-03-31T16:54:31.474Z,25.88
2019-03-31T16:57:02.924Z,24.10
2019-03-31T16:59:35.058Z,20.52
2019-03-31T17:02:06.409Z,22.25
2019-03-31T17:04:37.780Z,21.10
2019-03-31T17:07:09.148Z,22.13
2019-03-31T17:09:50.859Z,21.02
2019-03-31T17:12:13.482Z,20.00
2019-03-31T17:14:45.853Z,21.60
2019-03-31T17:17:17.161Z,19.10
2019-03-31T17:19:49.825Z,18.87
2019-03-31T17:22:21.224Z,18.30
2019-03-31T17:24:52.679Z,17.52
2019-03-31T17:27:23.986Z,19.10
2019-03-31T17:29:55.335Z,17.00
2019-03-31T17:32:26.722Z,18.02
2019-03-31T17:34:58.053Z,17.90
2019-03-31T17:37:29.455Z,16.62
2019-03-31T17:40:06.549Z,18.20
2019-03-31T17:42:33.859Z,16.37
2019-03-31T17:45:06.715Z,16.45
2019-03-31T17:47:38.047Z,18.10
2019-03-31T17:50:09.363Z,21.42
2019-03-31T17:52:41.725Z,20.60
2019-03-31T17:55:13.027Z,21.00
2019-03-31T17:57:44.440Z,20.88
2019-03-31T18:00:15.663Z,19.77
2019-03-31T18:02:46.915Z,20.20
2019-03-31T18:05:18.362Z,20.43
2019-03-31T18:07:49.691Z,21.73
2019-03-31T18:10:21.551Z,22.20
2019-03-31T18:12:53.009Z,22.67
2019-03-31T18:15:24.406Z,23.62
2019-03-31T18:17:55.715Z,24.70
2019-03-31T18:20:28.013Z,25.90
2019-03-31T18:23:01.232Z,24.18
2019-03-31T18:25:34.214Z,24.12
2019-03-31T18:28:05.490Z,25.15
2019-03-31T18:30:36.856Z,24.40
2019-03-31T18:33:08.207Z,25.15
2019-03-31T18:35:39.526Z,24.05
2019-03-31T18:38:10.881Z,24.23
2019-03-31T18:40:42.180Z,24.37
2019-03-31T18:43:13.475Z,24.90
2019-03-31T18:45:47.567Z,26.77
2019-03-31T18:48:19.024Z,26.15
2019-03-31T18:50:50.379Z,25.92
2019-03-31T18:53:23.305Z,26.85
2019-03-31T18:56:02.339Z,26.97
2019-03-31T18:58:35.344Z,25.72
2019-03-31T19:01:14.256Z,24.87
2019-03-31T19:03:53.399Z,24.82
2019-03-31T19:06:35.266Z,24.92
2019-03-31T19:09:13.461Z,22.82
2019-03-31T19:12:01.946Z,23.87
2019-03-31T19:14:34.841Z,23.62
2019-03-31T19:17:13.610Z,26.82
2019-03-31T19:20:04.807Z,25.52
2019-03-31T19:22:37.724Z,26.93
2019-03-31T19:25:26.892Z,25.60
2019-03-31T19:28:16.147Z,24.77
2019-03-31T19:31:05.433Z,25.10
2019-03-31T19:33:44.405Z,26.87
2019-03-31T19:36:26.644Z,24.50
2019-03-31T19:39:16.753Z,23.60
2019-03-31T19:41:58.476Z,23.22
2019-03-31T19:44:40.400Z,22.40
2019-03-31T19:47:31.796Z,22.45
2019-03-31T19:50:07.445Z,21.17
2019-03-31T19:52:40.324Z,20.82
2019-03-31T19:55:19.222Z,22.93
2019-03-31T19:58:08.282Z,23.10
2019-03-31T20:00:41.091Z,23.05
2019-03-31T20:03:13.876Z,23.47
2019-03-31T20:06:02.246Z,23.83
2019-03-31T20:08:38.255Z,23.20
2019-03-31T20:11:11.197Z,21.30
2019-03-31T20:14:02.415Z,22.98
2019-03-31T20:16:38.029Z,22.65
2019-03-31T20:19:16.917Z,22.73
2019-03-31T20:21:49.817Z,21.70
2019-03-31T20:24:22.751Z,21.87
2019-03-31T20:26:58.542Z,24.02
2019-03-31T20:29:31.407Z,29.90
2019-03-31T20:32:20.645Z,34.33
2019-03-31T20:34:56.469Z,32.05
2019-03-31T20:37:35.296Z,30.30
2019-03-31T20:40:11.493Z,31.90
2019-03-31T20:43:02.761Z,32.88
2019-03-31T20:45:34.098Z,32.83
2019-03-31T20:48:05.426Z,31.97
2019-03-31T20:50:36.754Z,32.48
2019-03-31T20:53:08.098Z,32.20
2019-03-31T20:55:39.466Z,32.98
2019-03-31T20:58:10.786Z,32.30
2019-03-31T21:00:42.097Z,33.85
2019-03-31T21:03:14.460Z,32.45
2019-03-31T21:05:45.761Z,32.35
2019-03-31T21:08:17.284Z,33.40
2019-03-31T21:10:48.617Z,32.50
2019-03-31T21:13:19.987Z,35.10
2019-03-31T21:15:51.353Z,34.58
2019-03-31T21:18:22.670Z,34.43
2019-03-31T21:20:53.979Z,34.08
2019-03-31T21:23:25.265Z,34.10
2019-03-31T21:25:57.621Z,34.48
2019-03-31T21:28:28.903Z,34.90
2019-03-31T21:31:04.009Z,34.13
2019-03-31T21:33:35.305Z,32.75
2019-03-31T21:36:06.661Z,34.53
2019-03-31T21:38:37.952Z,21.52
2019-03-31T21:41:13.917Z,22.10
2019-03-31T21:43:43.257Z,18.45
2019-03-31T21:46:14.622Z,19.02
2019-03-31T21:48:45.913Z,20.52
2019-03-31T21:51:18.297Z,20.50
2019-03-31T21:53:49.596Z,19.77
2019-03-31T21:56:20.906Z,18.42
2019-03-31T21:58:53.192Z,20.40
2019-03-31T22:01:24.446Z,20.62
2019-03-31T22:03:55.693Z,21.75
2019-03-31T22:06:26.990Z,23.05
2019-03-31T22:08:58.403Z,21.40
2019-03-31T22:11:29.721Z,22.30
2019-03-31T22:14:01.160Z,21.75
2019-03-31T22:16:32.486Z,20.90
2019-03-31T22:19:03.794Z,21.73
2019-03-31T22:21:35.434Z,21.73
2019-03-31T22:24:06.742Z,22.42
2019-03-31T22:26:40.201Z,21.80
2019-03-31T22:29:11.567Z,22.35
2019-03-31T22:31:44.009Z,23.47
2019-03-31T22:34:15.399Z,22.17
2019-03-31T22:36:46.717Z,20.75
2019-03-31T22:39:18.130Z,21.68
2019-03-31T22:41:49.437Z,21.65
2019-03-31T22:44:20.766Z,22.42
2019-03-31T22:46:54.495Z,21.97
2019-03-31T22:49:26.052Z,23.23
2019-03-31T22:51:57.408Z,23.73
2019-03-31T22:54:28.669Z,22.87
2019-03-31T22:57:00.024Z,22.62
2019-03-31T22:59:31.342Z,23.98
2019-03-31T23:02:02.677Z,22.70
2019-03-31T23:04:35.072Z,21.20
2019-03-31T23:07:06.383Z,20.92
2019-03-31T23:09:37.684Z,21.52
2019-03-31T23:12:09.031Z,23.70
2019-03-31T23:14:40.337Z,22.20
2019-03-31T23:17:11.561Z,21.90
2019-03-31T23:19:42.884Z,20.75
2019-03-31T23:22:14.210Z,20.82
2019-03-31T23:24:45.463Z,20.90
2019-03-31T23:27:16.808Z,21.65
2019-03-31T23:29:50.122Z,21.85
2019-03-31T23:32:23.009Z,20.02
2019-03-31T23:34:54.443Z,19.42
2019-03-31T23:37:25.769Z,20.97
2019-03-31T23:39:58.177Z,20.45
2019-03-31T23:42:29.408Z,19.90
2019-03-31T23:45:00.701Z,20.27
2019-03-31T23:47:32.003Z,19.25
2019-03-31T23:50:04.318Z,19.37
2019-03-31T23:52:35.628Z,20.15
2019-03-31T23:55:06.936Z,19.50
2019-03-31T23:57:44.030Z,18.77
